sensor_id;sensor_type;location;lat;lon;timestamp;pressure;altitude;pressure_sealevel;temperature;humidity
21182;BME280;10749;46.296;7.524;2022-12-16T00:01:20;93211.47;;;6.26;64.97
21182;BME280;10749;46.296;7.524;2022-12-16T00:03:53;93216.38;;;6.29;64.92
21182;BME280;10749;46.296;7.524;2022-12-16T00:06:20;93217.97;;;6.30;64.93
21182;BME280;10749;46.296;7.524;2022-12-16T00:08:45;93215.97;;;6.32;64.92
21182;BME280;10749;46.296;7.524;2022-12-16T00:11:11;93212.34;;;6.33;64.77
21182;BME280;10749;46.296;7.524;2022-12-16T00:13:38;93217.59;;;6.33;64.73
21182;BME280;10749;46.296;7.524;2022-12-16T00:16:12;93225.66;;;6.32;64.90
21182;BME280;10749;46.296;7.524;2022-12-16T00:18:39;93223.44;;;6.29;64.90
21182;BME280;10749;46.296;7.524;2022-12-16T00:21:05;93226.88;;;6.29;64.92
21182;BME280;10749;46.296;7.524;2022-12-16T00:23:31;93233.72;;;6.30;65.07
21182;BME280;10749;46.296;7.524;2022-12-16T00:25:57;93224.84;;;6.31;65.06
21182;BME280;10749;46.296;7.524;2022-12-16T00:28:23;93226.47;;;6.32;64.97
21182;BME280;10749;46.296;7.524;2022-12-16T00:30:49;93232.16;;;6.36;65.00
21182;BME280;10749;46.296;7.524;2022-12-16T00:33:16;93228.94;;;6.40;65.30
21182;BME280;10749;46.296;7.524;2022-12-16T00:35:42;93234.22;;;6.40;65.56
21182;BME280;10749;46.296;7.524;2022-12-16T00:38:08;93232.19;;;6.42;65.60
21182;BME280;10749;46.296;7.524;2022-12-16T00:40:33;93237.44;;;6.42;65.64
21182;BME280;10749;46.296;7.524;2022-12-16T00:42:59;93238.06;;;6.44;65.40
21182;BME280;10749;46.296;7.524;2022-12-16T00:45:24;93238.50;;;6.48;65.59
21182;BME280;10749;46.296;7.524;2022-12-16T00:47:49;93238.69;;;6.46;65.82
21182;BME280;10749;46.296;7.524;2022-12-16T00:50:15;93240.31;;;6.47;65.74
21182;BME280;10749;46.296;7.524;2022-12-16T00:52:41;93236.69;;;6.48;65.77
21182;BME280;10749;46.296;7.524;2022-12-16T00:55:06;93237.06;;;6.45;65.66
21182;BME280;10749;46.296;7.524;2022-12-16T00:57:34;93230.38;;;6.43;65.71
21182;BME280;10749;46.296;7.524;2022-12-16T01:00:00;93231.19;;;6.43;65.56
21182;BME280;10749;46.296;7.524;2022-12-16T01:02:25;93244.72;;;6.40;65.88
21182;BME280;10749;46.296;7.524;2022-12-16T01:04:50;93239.25;;;6.42;65.75
21182;BME280;10749;46.296;7.524;2022-12-16T01:07:16;93238.25;;;6.43;65.75
21182;BME280;10749;46.296;7.524;2022-12-16T01:09:41;93236.44;;;6.43;65.71
21182;BME280;10749;46.296;7.524;2022-12-16T01:12:07;93245.97;;;6.44;65.77
21182;BME280;10749;46.296;7.524;2022-12-16T01:14:32;93250.78;;;6.41;65.96
21182;BME280;10749;46.296;7.524;2022-12-16T01:16:57;93254.84;;;6.43;66.04
21182;BME280;10749;46.296;7.524;2022-12-16T01:19:23;93266.97;;;6.44;66.06
21182;BME280;10749;46.296;7.524;2022-12-16T01:21:48;93284.13;;;6.40;65.94
21182;BME280;10749;46.296;7.524;2022-12-16T01:24:13;93283.75;;;6.43;66.00
21182;BME280;10749;46.296;7.524;2022-12-16T01:26:39;93292.44;;;6.44;66.03
21182;BME280;10749;46.296;7.524;2022-12-16T01:29:05;93305.59;;;6.44;66.20
21182;BME280;10749;46.296;7.524;2022-12-16T01:31:30;93307.78;;;6.40;66.25
21182;BME280;10749;46.296;7.524;2022-12-16T01:33:56;93305.75;;;6.42;66.01
21182;BME280;10749;46.296;7.524;2022-12-16T01:36:21;93316.47;;;6.41;65.64
21182;BME280;10749;46.296;7.524;2022-12-16T01:38:47;93316.06;;;6.37;65.56
21182;BME280;10749;46.296;7.524;2022-12-16T01:41:14;93323.56;;;6.40;65.94
21182;BME280;10749;46.296;7.524;2022-12-16T01:43:40;93328.16;;;6.38;65.88
21182;BME280;10749;46.296;7.524;2022-12-16T01:46:13;93338.06;;;6.36;66.30
21182;BME280;10749;46.296;7.524;2022-12-16T01:48:57;93339.31;;;6.40;66.23
21182;BME280;10749;46.296;7.524;2022-12-16T01:51:43;93332.03;;;6.42;65.96
21182;BME280;10749;46.296;7.524;2022-12-16T01:54:14;93327.81;;;6.41;65.77
21182;BME280;10749;46.296;7.524;2022-12-16T01:56:45;93336.69;;;6.40;65.87
21182;BME280;10749;46.296;7.524;2022-12-16T01:59:14;93334.06;;;6.40;65.91
21182;BME280;10749;46.296;7.524;2022-12-16T02:01:41;93333.25;;;6.40;65.98
21182;BME280;10749;46.296;7.524;2022-12-16T02:04:07;93339.50;;;6.39;66.34
21182;BME280;10749;46.296;7.524;2022-12-16T02:06:32;93340.94;;;6.41;66.01
21182;BME280;10749;46.296;7.524;2022-12-16T02:09:00;93340.94;;;6.41;66.16
21182;BME280;10749;46.296;7.524;2022-12-16T02:14:42;93341.38;;;6.45;66.44
21182;BME280;10749;46.296;7.524;2022-12-16T02:23:42;93355.69;;;6.42;66.26
21182;BME280;10749;46.296;7.524;2022-12-16T02:31:51;93351.06;;;6.44;66.54
21182;BME280;10749;46.296;7.524;2022-12-16T02:37:42;93357.97;;;6.45;66.40
21182;BME280;10749;46.296;7.524;2022-12-16T02:40:29;93361.59;;;6.44;66.37
21182;BME280;10749;46.296;7.524;2022-12-16T02:43:03;93365.22;;;6.43;66.20
21182;BME280;10749;46.296;7.524;2022-12-16T02:45:31;93380.16;;;6.43;66.51
21182;BME280;10749;46.296;7.524;2022-12-16T02:47:57;93376.84;;;6.34;66.77
21182;BME280;10749;46.296;7.524;2022-12-16T02:50:25;93377.66;;;6.35;66.58
21182;BME280;10749;46.296;7.524;2022-12-16T02:52:52;93387.34;;;6.34;66.89
21182;BME280;10749;46.296;7.524;2022-12-16T02:55:19;93391.22;;;6.38;66.43
21182;BME280;10749;46.296;7.524;2022-12-16T03:00:21;93395.88;;;6.36;65.88
21182;BME280;10749;46.296;7.524;2022-12-16T03:03:03;93406.78;;;6.33;65.80
21182;BME280;10749;46.296;7.524;2022-12-16T03:05:38;93405.53;;;6.29;66.39
21182;BME280;10749;46.296;7.524;2022-12-16T03:08:11;93413.16;;;6.24;66.48
21182;BME280;10749;46.296;7.524;2022-12-16T03:10:42;93413.31;;;6.23;66.67
21182;BME280;10749;46.296;7.524;2022-12-16T03:13:10;93414.75;;;6.25;66.75
21182;BME280;10749;46.296;7.524;2022-12-16T03:15:38;93417.47;;;6.32;66.84
21182;BME280;10749;46.296;7.524;2022-12-16T03:18:07;93418.03;;;6.27;67.00
21182;BME280;10749;46.296;7.524;2022-12-16T03:20:36;93428.00;;;6.17;67.17
21182;BME280;10749;46.296;7.524;2022-12-16T03:23:09;93426.03;;;6.19;67.04
21182;BME280;10749;46.296;7.524;2022-12-16T03:25:40;93427.66;;;6.20;66.99
21182;BME280;10749;46.296;7.524;2022-12-16T03:31:30;93424.34;;;6.12;67.21
21182;BME280;10749;46.296;7.524;2022-12-16T03:34:16;93427.53;;;6.07;67.37
21182;BME280;10749;46.296;7.524;2022-12-16T03:36:50;93431.66;;;6.16;67.23
21182;BME280;10749;46.296;7.524;2022-12-16T03:39:18;93428.41;;;6.14;67.29
21182;BME280;10749;46.296;7.524;2022-12-16T03:41:46;93430.59;;;6.11;67.29
21182;BME280;10749;46.296;7.524;2022-12-16T03:44:13;93429.78;;;6.10;67.65
21182;BME280;10749;46.296;7.524;2022-12-16T03:46:38;93430.03;;;6.15;67.43
21182;BME280;10749;46.296;7.524;2022-12-16T03:49:04;93432.84;;;6.14;66.50
21182;BME280;10749;46.296;7.524;2022-12-16T03:51:29;93436.47;;;6.13;66.69
21182;BME280;10749;46.296;7.524;2022-12-16T03:53:54;93445.25;;;6.05;67.05
21182;BME280;10749;46.296;7.524;2022-12-16T03:56:20;93444.66;;;6.03;67.25
21182;BME280;10749;46.296;7.524;2022-12-16T03:58:45;93443.41;;;5.99;67.56
21182;BME280;10749;46.296;7.524;2022-12-16T04:01:11;93452.44;;;5.96;67.53
21182;BME280;10749;46.296;7.524;2022-12-16T04:03:37;93453.19;;;5.90;67.55
21182;BME280;10749;46.296;7.524;2022-12-16T04:06:02;93458.34;;;5.84;67.67
21182;BME280;10749;46.296;7.524;2022-12-16T04:08:28;93464.72;;;5.75;68.04
21182;BME280;10749;46.296;7.524;2022-12-16T04:10:54;93466.78;;;5.79;67.49
21182;BME280;10749;46.296;7.524;2022-12-16T04:13:37;93468.38;;;5.80;67.20
21182;BME280;10749;46.296;7.524;2022-12-16T04:16:22;93469.03;;;5.68;67.86
21182;BME280;10749;46.296;7.524;2022-12-16T04:19:18;93477.56;;;5.70;67.59
21182;BME280;10749;46.296;7.524;2022-12-16T04:22:04;93486.88;;;5.72;66.99
21182;BME280;10749;46.296;7.524;2022-12-16T04:24:48;93483.25;;;5.73;66.68
21182;BME280;10749;46.296;7.524;2022-12-16T04:27:14;93488.94;;;5.77;66.91
21182;BME280;10749;46.296;7.524;2022-12-16T04:29:48;93492.22;;;5.79;67.39
21182;BME280;10749;46.296;7.524;2022-12-16T04:32:32;93495.47;;;5.81;67.13
21182;BME280;10749;46.296;7.524;2022-12-16T04:35:17;93498.38;;;5.71;67.59
21182;BME280;10749;46.296;7.524;2022-12-16T04:38:02;93504.25;;;5.73;67.14
21182;BME280;10749;46.296;7.524;2022-12-16T04:40:46;93508.69;;;5.73;66.49
21182;BME280;10749;46.296;7.524;2022-12-16T04:43:30;93502.53;;;5.66;66.65
21182;BME280;10749;46.296;7.524;2022-12-16T04:46:13;93502.53;;;5.66;66.85
21182;BME280;10749;46.296;7.524;2022-12-16T04:48:57;93507.63;;;5.67;66.88
21182;BME280;10749;46.296;7.524;2022-12-16T04:51:41;93512.66;;;5.69;67.24
21182;BME280;10749;46.296;7.524;2022-12-16T04:54:25;93517.22;;;5.75;67.10
21182;BME280;10749;46.296;7.524;2022-12-16T04:57:09;93509.94;;;5.77;67.44
21182;BME280;10749;46.296;7.524;2022-12-16T04:59:53;93511.97;;;5.75;67.18
21182;BME280;10749;46.296;7.524;2022-12-16T05:02:37;93513.13;;;5.72;67.20
21182;BME280;10749;46.296;7.524;2022-12-16T05:05:21;93518.81;;;5.76;67.11
21182;BME280;10749;46.296;7.524;2022-12-16T05:08:18;93527.72;;;5.75;67.34
21182;BME280;10749;46.296;7.524;2022-12-16T05:11:03;93527.25;;;5.71;67.35
21182;BME280;10749;46.296;7.524;2022-12-16T05:13:51;93536.75;;;5.72;67.40
21182;BME280;10749;46.296;7.524;2022-12-16T05:16:35;93537.84;;;5.78;67.39
21182;BME280;10749;46.296;7.524;2022-12-16T05:19:19;93544.91;;;5.77;67.54
21182;BME280;10749;46.296;7.524;2022-12-16T05:22:03;93543.69;;;5.80;67.24
21182;BME280;10749;46.296;7.524;2022-12-16T05:24:46;93551.25;;;5.83;67.24
21182;BME280;10749;46.296;7.524;2022-12-16T05:27:31;93557.31;;;5.83;67.35
21182;BME280;10749;46.296;7.524;2022-12-16T05:30:14;93554.41;;;5.78;67.10
21182;BME280;10749;46.296;7.524;2022-12-16T05:32:58;93568.34;;;5.79;67.36
21182;BME280;10749;46.296;7.524;2022-12-16T05:35:42;93566.88;;;5.76;67.56
21182;BME280;10749;46.296;7.524;2022-12-16T05:38:26;93565.72;;;5.79;67.40
21182;BME280;10749;46.296;7.524;2022-12-16T05:41:10;93570.16;;;5.78;67.30
21182;BME280;10749;46.296;7.524;2022-12-16T05:43:54;93577.84;;;5.80;67.25
21182;BME280;10749;46.296;7.524;2022-12-16T05:46:38;93589.97;;;5.81;67.31
21182;BME280;10749;46.296;7.524;2022-12-16T05:49:22;93582.75;;;5.83;67.00
21182;BME280;10749;46.296;7.524;2022-12-16T05:52:05;93584.72;;;5.81;66.78
21182;BME280;10749;46.296;7.524;2022-12-16T05:54:49;93585.09;;;5.78;66.88
21182;BME280;10749;46.296;7.524;2022-12-16T05:57:33;93592.31;;;5.76;67.27
21182;BME280;10749;46.296;7.524;2022-12-16T06:00:17;93592.31;;;5.76;67.45
21182;BME280;10749;46.296;7.524;2022-12-16T06:03:01;93608.44;;;5.73;67.37
21182;BME280;10749;46.296;7.524;2022-12-16T06:05:45;93601.66;;;5.78;67.36
21182;BME280;10749;46.296;7.524;2022-12-16T06:08:29;93605.66;;;5.74;67.53
21182;BME280;10749;46.296;7.524;2022-12-16T06:11:13;93602.81;;;5.76;67.50
21182;BME280;10749;46.296;7.524;2022-12-16T06:13:57;93607.72;;;5.79;67.00
21182;BME280;10749;46.296;7.524;2022-12-16T06:16:41;93610.69;;;5.76;67.15
21182;BME280;10749;46.296;7.524;2022-12-16T06:19:25;93621.75;;;5.71;67.50
21182;BME280;10749;46.296;7.524;2022-12-16T06:22:08;93617.78;;;5.75;67.65
21182;BME280;10749;46.296;7.524;2022-12-16T06:24:52;93621.47;;;5.81;67.40
21182;BME280;10749;46.296;7.524;2022-12-16T06:27:36;93621.13;;;5.84;67.30
21182;BME280;10749;46.296;7.524;2022-12-16T06:30:21;93634.06;;;5.85;67.21
21182;BME280;10749;46.296;7.524;2022-12-16T06:33:04;93633.63;;;5.82;67.46
21182;BME280;10749;46.296;7.524;2022-12-16T06:35:49;93622.13;;;5.83;67.66
21182;BME280;10749;46.296;7.524;2022-12-16T06:38:32;93637.38;;;5.87;67.29
21182;BME280;10749;46.296;7.524;2022-12-16T06:41:16;93632.13;;;5.87;67.48
21182;BME280;10749;46.296;7.524;2022-12-16T06:44:01;93639.81;;;5.89;67.52
21182;BME280;10749;46.296;7.524;2022-12-16T06:46:44;93651.31;;;5.88;67.43
21182;BME280;10749;46.296;7.524;2022-12-16T06:49:28;93655.88;;;5.86;67.60
21182;BME280;10749;46.296;7.524;2022-12-16T06:52:12;93661.50;;;5.83;67.24
21182;BME280;10749;46.296;7.524;2022-12-16T06:55:13;93664.75;;;5.85;67.09
21182;BME280;10749;46.296;7.524;2022-12-16T06:57:58;93663.94;;;5.84;67.29
21182;BME280;10749;46.296;7.524;2022-12-16T07:00:42;93674.63;;;5.83;67.30
21182;BME280;10749;46.296;7.524;2022-12-16T07:03:26;93672.84;;;5.83;67.85
21182;BME280;10749;46.296;7.524;2022-12-16T07:06:10;93672.00;;;5.83;67.35
21182;BME280;10749;46.296;7.524;2022-12-16T07:08:54;93673.00;;;5.82;67.16
21182;BME280;10749;46.296;7.524;2022-12-16T07:11:38;93682.84;;;5.80;67.22
21182;BME280;10749;46.296;7.524;2022-12-16T07:14:22;93680.31;;;5.72;67.08
21182;BME280;10749;46.296;7.524;2022-12-16T07:17:06;93678.69;;;5.71;67.48
21182;BME280;10749;46.296;7.524;2022-12-16T07:19:50;93683.22;;;5.77;67.48
21182;BME280;10749;46.296;7.524;2022-12-16T07:22:34;93691.09;;;5.77;67.54
21182;BME280;10749;46.296;7.524;2022-12-16T07:25:17;93699.78;;;5.77;67.36
21182;BME280;10749;46.296;7.524;2022-12-16T07:28:01;93700.25;;;5.81;67.55
21182;BME280;10749;46.296;7.524;2022-12-16T07:30:45;93702.88;;;5.81;67.38
21182;BME280;10749;46.296;7.524;2022-12-16T07:33:29;93707.91;;;5.68;67.73
21182;BME280;10749;46.296;7.524;2022-12-16T07:36:13;93708.66;;;5.76;67.73
21182;BME280;10749;46.296;7.524;2022-12-16T07:38:57;93715.16;;;5.80;67.00
21182;BME280;10749;46.296;7.524;2022-12-16T07:41:41;93721.25;;;5.81;67.24
21182;BME280;10749;46.296;7.524;2022-12-16T07:44:25;93728.13;;;5.82;67.01
21182;BME280;10749;46.296;7.524;2022-12-16T07:47:09;93734.09;;;5.76;67.23
21182;BME280;10749;46.296;7.524;2022-12-16T07:49:53;93727.69;;;5.78;67.10
21182;BME280;10749;46.296;7.524;2022-12-16T07:52:37;93731.13;;;5.79;67.10
21182;BME280;10749;46.296;7.524;2022-12-16T07:55:21;93729.31;;;5.79;67.32
21182;BME280;10749;46.296;7.524;2022-12-16T07:58:04;93737.53;;;5.76;67.59
21182;BME280;10749;46.296;7.524;2022-12-16T08:00:48;93741.78;;;5.77;67.69
21182;BME280;10749;46.296;7.524;2022-12-16T08:03:32;93749.13;;;5.82;67.69
21182;BME280;10749;46.296;7.524;2022-12-16T08:06:16;93751.41;;;5.85;67.62
21182;BME280;10749;46.296;7.524;2022-12-16T08:09:00;93750.09;;;5.89;67.75
21182;BME280;10749;46.296;7.524;2022-12-16T08:11:44;93759.97;;;5.87;67.56
21182;BME280;10749;46.296;7.524;2022-12-16T08:14:28;93756.97;;;5.90;67.72
21182;BME280;10749;46.296;7.524;2022-12-16T08:17:12;93765.50;;;5.92;67.46
21182;BME280;10749;46.296;7.524;2022-12-16T08:19:56;93764.50;;;5.93;67.67
21182;BME280;10749;46.296;7.524;2022-12-16T08:22:40;93771.03;;;5.97;67.51
21182;BME280;10749;46.296;7.524;2022-12-16T08:25:24;93781.72;;;5.95;67.60
21182;BME280;10749;46.296;7.524;2022-12-16T08:28:08;93772.38;;;5.93;67.63
21182;BME280;10749;46.296;7.524;2022-12-16T08:30:52;93784.41;;;5.87;67.72
21182;BME280;10749;46.296;7.524;2022-12-16T08:33:35;93797.34;;;5.89;67.85
21182;BME280;10749;46.296;7.524;2022-12-16T08:36:19;93796.53;;;5.88;67.91
21182;BME280;10749;46.296;7.524;2022-12-16T08:39:03;93803.91;;;5.85;67.95
21182;BME280;10749;46.296;7.524;2022-12-16T08:41:47;93807.84;;;5.89;67.87
21182;BME280;10749;46.296;7.524;2022-12-16T08:44:31;93817.00;;;5.93;67.91
21182;BME280;10749;46.296;7.524;2022-12-16T08:47:15;93817.66;;;5.95;67.77
21182;BME280;10749;46.296;7.524;2022-12-16T08:49:59;93818.94;;;5.99;67.75
21182;BME280;10749;46.296;7.524;2022-12-16T08:52:43;93830.06;;;6.01;67.59
21182;BME280;10749;46.296;7.524;2022-12-16T08:55:27;93822.09;;;5.94;67.83
21182;BME280;10749;46.296;7.524;2022-12-16T08:58:11;93826.88;;;5.91;67.77
21182;BME280;10749;46.296;7.524;2022-12-16T09:00:54;93831.31;;;5.90;67.87
21182;BME280;10749;46.296;7.524;2022-12-16T09:03:38;93825.25;;;5.90;67.89
21182;BME280;10749;46.296;7.524;2022-12-16T09:06:22;93831.31;;;5.90;68.04
21182;BME280;10749;46.296;7.524;2022-12-16T09:09:07;93842.28;;;5.94;67.88
21182;BME280;10749;46.296;7.524;2022-12-16T09:11:51;93845.56;;;5.96;67.79
21182;BME280;10749;46.296;7.524;2022-12-16T09:14:35;93850.81;;;5.96;67.79
21182;BME280;10749;46.296;7.524;2022-12-16T09:17:19;93852.78;;;5.94;67.93
21182;BME280;10749;46.296;7.524;2022-12-16T09:20:04;93853.25;;;5.97;67.94
21182;BME280;10749;46.296;7.524;2022-12-16T09:22:48;93858.50;;;5.97;67.89
21182;BME280;10749;46.296;7.524;2022-12-16T09:25:32;93858.88;;;5.94;67.85
21182;BME280;10749;46.296;7.524;2022-12-16T09:28:16;93862.47;;;5.93;67.70
21182;BME280;10749;46.296;7.524;2022-12-16T09:31:00;93868.19;;;5.97;67.64
21182;BME280;10749;46.296;7.524;2022-12-16T09:33:43;93871.00;;;5.95;67.66
21182;BME280;10749;46.296;7.524;2022-12-16T09:36:27;93874.25;;;5.97;67.90
21182;BME280;10749;46.296;7.524;2022-12-16T09:39:11;93873.91;;;6.00;67.72
21182;BME280;10749;46.296;7.524;2022-12-16T09:42:22;93877.72;;;5.98;67.83
21182;BME280;10749;46.296;7.524;2022-12-16T09:45:19;93890.84;;;5.98;67.82
21182;BME280;10749;46.296;7.524;2022-12-16T09:51:19;93899.53;;;5.98;67.94
21182;BME280;10749;46.296;7.524;2022-12-16T09:54:03;93902.63;;;6.02;67.87
21182;BME280;10749;46.296;7.524;2022-12-16T09:56:48;93903.28;;;6.04;67.94
21182;BME280;10749;46.296;7.524;2022-12-16T09:59:36;93900.00;;;6.02;67.99
21182;BME280;10749;46.296;7.524;2022-12-16T10:02:23;93897.84;;;6.06;67.98
21182;BME280;10749;46.296;7.524;2022-12-16T10:05:12;93899.94;;;6.10;67.90
21182;BME280;10749;46.296;7.524;2022-12-16T10:08:04;93893.06;;;6.09;67.89
21182;BME280;10749;46.296;7.524;2022-12-16T10:13:53;93895.69;;;6.09;68.06
21182;BME280;10749;46.296;7.524;2022-12-16T10:19:40;93895.50;;;6.11;68.20
21182;BME280;10749;46.296;7.524;2022-12-16T10:22:37;93896.34;;;6.11;68.03
21182;BME280;10749;46.296;7.524;2022-12-16T10:25:31;93895.34;;;6.12;68.11
21182;BME280;10749;46.296;7.524;2022-12-16T10:28:25;93893.34;;;6.14;67.86
21182;BME280;10749;46.296;7.524;2022-12-16T10:31:15;93891.03;;;6.19;67.91
21182;BME280;10749;46.296;7.524;2022-12-16T10:33:59;93887.22;;;6.22;68.00
21182;BME280;10749;46.296;7.524;2022-12-16T10:36:45;93882.78;;;6.22;68.10
21182;BME280;10749;46.296;7.524;2022-12-16T10:39:33;93888.41;;;6.19;68.01
21182;BME280;10749;46.296;7.524;2022-12-16T10:42:27;93884.94;;;6.19;67.96
21182;BME280;10749;46.296;7.524;2022-12-16T10:45:23;93890.03;;;6.20;68.07
21182;BME280;10749;46.296;7.524;2022-12-16T10:48:10;93893.28;;;6.22;68.00
21182;BME280;10749;46.296;7.524;2022-12-16T10:50:54;93890.84;;;6.21;68.07
21182;BME280;10749;46.296;7.524;2022-12-16T10:53:38;93888.84;;;6.23;68.12
21182;BME280;10749;46.296;7.524;2022-12-16T10:57:03;93891.59;;;6.29;68.14
21182;BME280;10749;46.296;7.524;2022-12-16T10:59:44;93887.91;;;6.38;67.65
21182;BME280;10749;46.296;7.524;2022-12-16T11:02:28;93890.34;;;6.40;67.38
21182;BME280;10749;46.296;7.524;2022-12-16T11:05:30;93889.06;;;6.36;67.48
21182;BME280;10749;46.296;7.524;2022-12-16T11:08:32;93895.78;;;6.38;67.46
21182;BME280;10749;46.296;7.524;2022-12-16T11:14:16;93888.34;;;6.42;67.88
21182;BME280;10749;46.296;7.524;2022-12-16T11:20:12;93894.84;;;6.54;68.20
21182;BME280;10749;46.296;7.524;2022-12-16T11:26:03;93884.06;;;6.64;67.86
21182;BME280;10749;46.296;7.524;2022-12-16T11:31:47;93888.25;;;6.73;67.96
21182;BME280;10749;46.296;7.524;2022-12-16T11:34:33;93886.00;;;6.70;68.02
21182;BME280;10749;46.296;7.524;2022-12-16T11:37:18;93892.53;;;6.74;67.69
21182;BME280;10749;46.296;7.524;2022-12-16T11:40:03;93894.41;;;6.65;67.98
21182;BME280;10749;46.296;7.524;2022-12-16T11:42:48;93898.38;;;6.61;68.00
21182;BME280;10749;46.296;7.524;2022-12-16T11:45:31;93900.81;;;6.63;67.77
21182;BME280;10749;46.296;7.524;2022-12-16T11:48:35;93906.91;;;6.63;67.97
21182;BME280;10749;46.296;7.524;2022-12-16T11:51:21;93904.47;;;6.62;67.73
21182;BME280;10749;46.296;7.524;2022-12-16T11:54:23;93909.28;;;6.58;67.88
21182;BME280;10749;46.296;7.524;2022-12-16T11:57:32;93908.44;;;6.58;67.85
21182;BME280;10749;46.296;7.524;2022-12-16T12:00:18;93912.06;;;6.57;67.99
21182;BME280;10749;46.296;7.524;2022-12-16T12:09:23;93911.16;;;6.64;67.87
21182;BME280;10749;46.296;7.524;2022-12-16T12:18:07;93911.47;;;6.69;67.94
21182;BME280;10749;46.296;7.524;2022-12-16T12:26:35;93907.94;;;6.77;67.89
21182;BME280;10749;46.296;7.524;2022-12-16T12:35:49;93915.91;;;6.83;68.01
21182;BME280;10749;46.296;7.524;2022-12-16T12:47:26;93922.19;;;6.82;68.06
21182;BME280;10749;46.296;7.524;2022-12-16T12:50:23;93927.78;;;6.79;68.05
21182;BME280;10749;46.296;7.524;2022-12-16T12:59:35;93933.16;;;6.86;67.90
21182;BME280;10749;46.296;7.524;2022-12-16T13:02:23;93934.97;;;6.85;67.95
21182;BME280;10749;46.296;7.524;2022-12-16T13:05:15;93927.16;;;6.92;67.79
21182;BME280;10749;46.296;7.524;2022-12-16T13:11:22;93929.19;;;6.90;67.58
21182;BME280;10749;46.296;7.524;2022-12-16T13:17:15;93941.22;;;6.84;67.82
21182;BME280;10749;46.296;7.524;2022-12-16T13:20:00;93938.41;;;6.86;67.91
21182;BME280;10749;46.296;7.524;2022-12-16T13:22:45;93941.06;;;6.86;67.46
21182;BME280;10749;46.296;7.524;2022-12-16T13:25:52;93951.22;;;6.89;67.85
21182;BME280;10749;46.296;7.524;2022-12-16T13:28:39;93945.41;;;6.93;67.75
21182;BME280;10749;46.296;7.524;2022-12-16T13:31:25;93945.41;;;6.93;67.61
21182;BME280;10749;46.296;7.524;2022-12-16T13:36:58;93962.38;;;6.91;67.84
21182;BME280;10749;46.296;7.524;2022-12-16T13:39:43;93952.84;;;6.90;67.70
21182;BME280;10749;46.296;7.524;2022-12-16T13:54:43;93966.00;;;6.90;67.83
21182;BME280;10749;46.296;7.524;2022-12-16T13:57:30;93970.91;;;6.93;67.44
21182;BME280;10749;46.296;7.524;2022-12-16T14:00:21;93968.25;;;6.93;67.53
21182;BME280;10749;46.296;7.524;2022-12-16T14:03:18;93975.88;;;6.88;67.60
21182;BME280;10749;46.296;7.524;2022-12-16T14:06:04;93983.13;;;6.86;67.83
21182;BME280;10749;46.296;7.524;2022-12-16T14:08:51;93981.66;;;6.83;67.71
21182;BME280;10749;46.296;7.524;2022-12-16T14:14:30;93985.31;;;6.82;67.86
21182;BME280;10749;46.296;7.524;2022-12-16T14:17:22;93978.03;;;6.84;67.70
21182;BME280;10749;46.296;7.524;2022-12-16T14:20:21;93979.22;;;6.82;67.82
21182;BME280;10749;46.296;7.524;2022-12-16T14:26:14;93984.94;;;6.85;67.27
21182;BME280;10749;46.296;7.524;2022-12-16T14:29:00;93991.03;;;6.86;67.32
21182;BME280;10749;46.296;7.524;2022-12-16T14:31:44;93994.28;;;6.88;67.18
21182;BME280;10749;46.296;7.524;2022-12-16T14:34:31;93992.31;;;6.90;67.21
21182;BME280;10749;46.296;7.524;2022-12-16T14:37:41;94004.47;;;6.91;67.27
21182;BME280;10749;46.296;7.524;2022-12-16T14:40:30;94012.81;;;6.94;67.34
21182;BME280;10749;46.296;7.524;2022-12-16T14:43:23;94010.25;;;6.86;67.58
21182;BME280;10749;46.296;7.524;2022-12-16T14:46:28;94017.25;;;6.94;67.39
21182;BME280;10749;46.296;7.524;2022-12-16T14:49:20;94022.69;;;6.92;67.55
21182;BME280;10749;46.296;7.524;2022-12-16T14:52:25;94027.13;;;6.92;67.65
21182;BME280;10749;46.296;7.524;2022-12-16T14:55:11;94040.09;;;6.93;67.66
21182;BME280;10749;46.296;7.524;2022-12-16T15:00:46;94037.94;;;6.97;66.99
21182;BME280;10749;46.296;7.524;2022-12-16T15:03:39;94038.94;;;6.96;66.98
21182;BME280;10749;46.296;7.524;2022-12-16T15:06:31;94048.16;;;6.92;67.35
21182;BME280;10749;46.296;7.524;2022-12-16T15:09:23;94050.34;;;6.88;67.40
21182;BME280;10749;46.296;7.524;2022-12-16T15:12:09;94054.59;;;6.89;67.54
21182;BME280;10749;46.296;7.524;2022-12-16T15:14:55;94059.03;;;6.89;67.63
21182;BME280;10749;46.296;7.524;2022-12-16T15:17:42;94059.22;;;6.87;67.44
21182;BME280;10749;46.296;7.524;2022-12-16T15:20:29;94062.03;;;6.86;67.68
21182;BME280;10749;46.296;7.524;2022-12-16T15:23:22;94068.13;;;6.86;67.49
21182;BME280;10749;46.296;7.524;2022-12-16T15:26:08;94077.88;;;6.78;67.51
21182;BME280;10749;46.296;7.524;2022-12-16T15:28:52;94076.69;;;6.80;67.47
21182;BME280;10749;46.296;7.524;2022-12-16T15:31:39;94080.31;;;6.79;67.39
21182;BME280;10749;46.296;7.524;2022-12-16T15:34:45;94088.34;;;6.86;67.26
21182;BME280;10749;46.296;7.524;2022-12-16T15:37:34;94085.72;;;6.86;66.91
21182;BME280;10749;46.296;7.524;2022-12-16T15:40:27;94092.31;;;6.82;67.29
21182;BME280;10749;46.296;7.524;2022-12-16T15:43:28;94098.56;;;6.81;67.24
21182;BME280;10749;46.296;7.524;2022-12-16T15:46:22;94092.00;;;6.77;67.02
21182;BME280;10749;46.296;7.524;2022-12-16T15:49:25;94096.66;;;6.75;66.91
21182;BME280;10749;46.296;7.524;2022-12-16T15:52:40;94097.63;;;6.74;66.75
21182;BME280;10749;46.296;7.524;2022-12-16T15:55:36;94104.22;;;6.70;66.75
21182;BME280;10749;46.296;7.524;2022-12-16T15:58:29;94108.81;;;6.68;66.84
21182;BME280;10749;46.296;7.524;2022-12-16T16:01:16;94105.56;;;6.66;67.21
21182;BME280;10749;46.296;7.524;2022-12-16T16:04:01;94116.25;;;6.64;67.31
21182;BME280;10749;46.296;7.524;2022-12-16T16:06:48;94116.41;;;6.63;67.12
21182;BME280;10749;46.296;7.524;2022-12-16T16:09:34;94114.91;;;6.68;67.18
21182;BME280;10749;46.296;7.524;2022-12-16T16:12:20;94121.00;;;6.69;67.31
21182;BME280;10749;46.296;7.524;2022-12-16T16:15:05;94118.19;;;6.70;67.36
21182;BME280;10749;46.296;7.524;2022-12-16T16:17:55;94126.91;;;6.71;67.35
21182;BME280;10749;46.296;7.524;2022-12-16T16:20:39;94127.06;;;6.69;67.60
21182;BME280;10749;46.296;7.524;2022-12-16T16:23:23;94124.75;;;6.74;67.26